createdAt,value
2023-03-03T00:00:43.251Z,8.80
2023-03-03T00:03:12.386Z,8.57
2023-03-03T00:05:39.355Z,7.59
2023-03-03T00:08:06.676Z,7.32
2023-03-03T00:10:34.145Z,8.05
2023-03-03T00:13:02.311Z,10.73
2023-03-03T00:15:30.262Z,10.67
2023-03-03T00:17:57.179Z,9.10
2023-03-03T00:20:34.117Z,9.14
2023-03-03T00:23:13.954Z,8.15
2023-03-03T00:25:43.795Z,8.78
2023-03-03T00:28:22.356Z,8.77
2023-03-03T00:30:49.296Z,8.44
2023-03-03T00:33:26.254Z,8.45
2023-03-03T00:35:53.036Z,8.91
2023-03-03T00:38:19.993Z,9.19
2023-03-03T00:40:48.452Z,9.37
2023-03-03T00:43:20.235Z,8.76
2023-03-03T00:45:48.502Z,9.66
2023-03-03T00:48:24.246Z,9.17
2023-03-03T00:50:52.185Z,9.24
2023-03-03T00:53:20.389Z,8.79
2023-03-03T00:55:50.046Z,8.96
2023-03-03T00:58:19.004Z,9.64
2023-03-03T01:00:45.729Z,8.73
2023-03-03T01:03:14.370Z,8.95
2023-03-03T01:05:41.120Z,8.61
2023-03-03T01:08:07.910Z,7.56
2023-03-03T01:10:37.917Z,8.49
2023-03-03T01:13:06.025Z,10.71
2023-03-03T01:15:34.255Z,11.20
2023-03-03T01:18:01.303Z,11.24
2023-03-03T01:20:28.183Z,12.06
2023-03-03T01:22:54.942Z,12.51
2023-03-03T01:25:21.975Z,12.79
2023-03-03T01:27:48.850Z,13.71
2023-03-03T01:30:16.613Z,13.52
2023-03-03T01:32:44.795Z,13.21
2023-03-03T01:35:11.927Z,12.93
2023-03-03T01:37:38.939Z,13.94
2023-03-03T01:40:12.559Z,15.78
2023-03-03T01:42:39.325Z,14.67
2023-03-03T01:45:21.531Z,15.31
2023-03-03T01:48:01.636Z,19.63
2023-03-03T01:50:40.912Z,18.87
2023-03-03T01:53:13.609Z,18.48
2023-03-03T01:55:41.973Z,18.97
2023-03-03T01:58:13.739Z,19.22
2023-03-03T02:00:44.077Z,19.81
2023-03-03T02:03:12.429Z,19.95
2023-03-03T02:05:41.403Z,18.28
2023-03-03T02:08:12.376Z,17.96
2023-03-03T02:10:40.257Z,18.14
2023-03-03T02:13:07.316Z,18.95
2023-03-03T02:15:35.115Z,18.19
2023-03-03T02:18:05.576Z,17.74
2023-03-03T02:20:52.382Z,16.93
2023-03-03T02:23:23.844Z,14.86
2023-03-03T02:26:07.795Z,15.56
2023-03-03T02:28:36.111Z,15.69
2023-03-03T02:31:05.936Z,14.24
2023-03-03T02:33:32.964Z,14.55
2023-03-03T02:35:59.872Z,15.14
2023-03-03T02:38:30.813Z,15.92
2023-03-03T02:41:03.813Z,16.96
2023-03-03T02:43:39.769Z,17.50
2023-03-03T02:46:06.517Z,17.91
2023-03-03T02:48:33.398Z,17.54
2023-03-03T02:51:00.176Z,17.05
2023-03-03T02:53:26.906Z,15.75
2023-03-03T02:55:53.748Z,15.82
2023-03-03T02:58:20.583Z,17.37
2023-03-03T03:00:48.791Z,17.49
2023-03-03T03:03:15.635Z,17.14
2023-03-03T03:05:42.481Z,17.82
2023-03-03T03:08:09.321Z,18.90
2023-03-03T03:10:36.542Z,20.21
2023-03-03T03:13:03.393Z,20.17
2023-03-03T03:15:30.294Z,21.03
2023-03-03T03:17:58.449Z,20.68
2023-03-03T03:20:25.202Z,19.20
2023-03-03T03:22:52.013Z,18.27
2023-03-03T03:25:19.024Z,16.29
2023-03-03T03:27:45.743Z,16.52
2023-03-03T03:30:12.868Z,16.92
2023-03-03T03:32:39.678Z,16.74
2023-03-03T03:35:08.930Z,15.12
2023-03-03T03:37:35.687Z,15.43
2023-03-03T03:40:02.460Z,17.03
2023-03-03T03:42:29.204Z,16.27
2023-03-03T03:44:56.027Z,15.89
2023-03-03T03:47:22.930Z,14.62
2023-03-03T03:49:49.743Z,13.43
2023-03-03T03:52:17.990Z,12.98
2023-03-03T03:54:44.752Z,11.69
2023-03-03T03:57:11.717Z,9.89
2023-03-03T03:59:38.445Z,10.69
2023-03-03T04:02:05.326Z,11.25
2023-03-03T04:04:32.220Z,10.94
2023-03-03T04:06:58.945Z,10.00
2023-03-03T04:09:27.050Z,10.16
2023-03-03T04:11:53.811Z,10.63
2023-03-03T04:14:20.663Z,12.18
2023-03-03T04:16:47.628Z,12.29
2023-03-03T04:19:14.429Z,12.58
2023-03-03T04:21:41.358Z,11.83
2023-03-03T04:24:08.533Z,10.53
2023-03-03T04:26:36.989Z,10.38
2023-03-03T04:29:03.767Z,8.29
2023-03-03T04:31:30.646Z,6.01
2023-03-03T04:33:57.509Z,5.99
2023-03-03T04:36:24.314Z,5.52
2023-03-03T04:38:51.083Z,6.25
2023-03-03T04:41:17.923Z,5.90
2023-03-03T04:43:46.061Z,6.69
2023-03-03T04:46:12.872Z,7.41
2023-03-03T04:48:39.587Z,6.41
2023-03-03T04:51:06.454Z,6.13
2023-03-03T04:53:33.309Z,5.33
2023-03-03T04:56:00.179Z,5.37
2023-03-03T04:58:26.981Z,5.25
2023-03-03T05:00:56.545Z,5.75
2023-03-03T05:03:24.001Z,5.88
2023-03-03T05:05:50.834Z,5.29
2023-03-03T05:08:17.582Z,5.10
2023-03-03T05:10:44.302Z,4.93
2023-03-03T05:13:11.302Z,5.23
2023-03-03T05:15:38.198Z,5.05
2023-03-03T05:18:06.512Z,5.14
2023-03-03T05:20:33.353Z,5.18
2023-03-03T05:23:00.089Z,5.91
2023-03-03T05:25:26.935Z,5.31
2023-03-03T05:27:53.729Z,5.86
2023-03-03T05:30:20.713Z,6.22
2023-03-03T05:32:47.411Z,7.76
2023-03-03T05:35:15.747Z,8.80
2023-03-03T05:37:42.703Z,8.30
2023-03-03T05:40:10.787Z,8.71
2023-03-03T05:42:37.779Z,7.97
2023-03-03T05:45:05.576Z,6.59
2023-03-03T05:47:32.418Z,7.15
2023-03-03T05:49:59.227Z,7.18
2023-03-03T05:52:27.391Z,5.85
2023-03-03T05:54:54.154Z,7.27
2023-03-03T05:57:20.883Z,6.26
2023-03-03T05:59:47.672Z,5.46
2023-03-03T06:02:14.710Z,5.16
2023-03-03T06:04:41.551Z,4.94
2023-03-03T06:07:08.457Z,4.45
2023-03-03T06:09:36.891Z,5.56
2023-03-03T06:12:05.078Z,5.55
2023-03-03T06:14:32.816Z,6.66
2023-03-03T06:16:59.681Z,7.46
2023-03-03T06:19:26.495Z,6.70
2023-03-03T06:21:53.825Z,6.79
2023-03-03T06:24:20.766Z,6.94
2023-03-03T06:26:49.237Z,6.39
2023-03-03T06:29:16.483Z,6.49
2023-03-03T06:31:44.301Z,6.60
2023-03-03T06:34:11.344Z,7.08
2023-03-03T06:36:38.153Z,7.40
2023-03-03T06:39:05.232Z,6.44
2023-03-03T06:41:33.304Z,7.19
2023-03-03T06:44:01.774Z,7.70
2023-03-03T06:46:28.723Z,8.67
2023-03-03T06:48:55.547Z,7.94
2023-03-03T06:51:24.485Z,7.59
2023-03-03T06:53:54.045Z,7.11
2023-03-03T06:56:20.937Z,7.55
2023-03-03T06:58:48.744Z,8.20
2023-03-03T07:01:17.921Z,8.29
2023-03-03T07:03:45.771Z,8.95
2023-03-03T07:06:21.868Z,9.19
2023-03-03T07:08:49.365Z,8.51
2023-03-03T07:11:18.726Z,9.51
2023-03-03T07:13:48.377Z,10.96
2023-03-03T07:16:19.164Z,10.61
2023-03-03T07:18:53.665Z,12.29
2023-03-03T07:21:22.498Z,11.73
2023-03-03T07:23:51.330Z,10.42
2023-03-03T07:26:20.957Z,10.78
2023-03-03T07:28:54.786Z,10.46
2023-03-03T07:31:36.613Z,9.33
2023-03-03T07:34:19.685Z,8.83
2023-03-03T07:36:52.989Z,9.42
2023-03-03T07:39:31.554Z,8.97
2023-03-03T07:42:15.765Z,10.06
2023-03-03T07:44:43.400Z,8.73
2023-03-03T07:47:20.719Z,8.72
2023-03-03T07:49:49.299Z,9.40
2023-03-03T07:52:29.891Z,9.51
2023-03-03T07:55:00.327Z,9.70
2023-03-03T07:57:31.242Z,10.06
2023-03-03T08:00:02.694Z,10.20
2023-03-03T08:02:44.203Z,9.19
2023-03-03T08:05:31.774Z,9.80
2023-03-03T08:08:27.841Z,9.28
2023-03-03T08:10:55.629Z,9.46
2023-03-03T08:13:24.693Z,8.85
2023-03-03T08:16:01.354Z,7.94
2023-03-03T08:18:35.101Z,8.88
2023-03-03T08:21:03.497Z,8.06
2023-03-03T08:23:30.802Z,9.24
2023-03-03T08:25:58.072Z,9.08
2023-03-03T08:28:24.974Z,9.11
2023-03-03T08:30:54.363Z,9.39
2023-03-03T08:33:27.382Z,11.08
2023-03-03T08:35:55.728Z,11.38
2023-03-03T08:38:23.250Z,10.25
2023-03-03T08:40:50.718Z,9.95
2023-03-03T08:43:18.134Z,9.59
2023-03-03T08:45:46.958Z,8.78
2023-03-03T08:48:14.579Z,9.44
2023-03-03T08:50:41.841Z,9.42
2023-03-03T08:53:11.018Z,9.81
2023-03-03T08:55:39.116Z,9.24
2023-03-03T08:58:06.258Z,8.69
2023-03-03T09:00:33.213Z,8.80
2023-03-03T09:03:00.283Z,8.46
2023-03-03T09:05:28.370Z,7.98
2023-03-03T09:07:55.869Z,7.69
2023-03-03T09:10:26.587Z,7.83
2023-03-03T09:12:54.265Z,8.75
2023-03-03T09:15:25.128Z,8.66
2023-03-03T09:17:53.701Z,9.07
2023-03-03T09:20:30.893Z,8.34
2023-03-03T09:22:58.607Z,8.73
2023-03-03T09:25:33.558Z,8.92
2023-03-03T09:28:01.449Z,9.57
2023-03-03T09:30:37.795Z,10.56
2023-03-03T09:33:23.250Z,10.24
2023-03-03T09:35:52.436Z,11.28
2023-03-03T09:38:27.408Z,12.56
2023-03-03T09:41:23.580Z,12.62
2023-03-03T09:44:12.114Z,11.26
2023-03-03T09:46:48.664Z,12.55
2023-03-03T09:49:26.509Z,12.58
2023-03-03T09:52:18.547Z,14.08
2023-03-03T09:55:10.923Z,12.58
2023-03-03T09:58:09.939Z,12.92
2023-03-03T10:00:50.061Z,12.82
2023-03-03T10:03:48.230Z,15.83
2023-03-03T10:06:22.205Z,13.41
2023-03-03T10:09:11.368Z,13.93
2023-03-03T10:11:46.423Z,13.76
2023-03-03T10:14:49.398Z,12.82
2023-03-03T10:17:26.190Z,13.20
2023-03-03T10:20:06.631Z,12.32
2023-03-03T10:22:47.648Z,11.54
2023-03-03T10:25:24.566Z,11.92
2023-03-03T10:28:04.118Z,11.23
2023-03-03T10:30:58.482Z,11.36
2023-03-03T10:33:41.519Z,11.77
2023-03-03T10:36:32.013Z,15.46
2023-03-03T10:39:16.162Z,15.69
2023-03-03T10:42:03.709Z,15.73
2023-03-03T10:45:02.199Z,13.43
2023-03-03T10:47:43.125Z,11.92
2023-03-03T10:50:19.388Z,10.02
2023-03-03T10:52:51.189Z,10.94
2023-03-03T10:55:28.282Z,11.33
2023-03-03T10:58:09.480Z,11.22
2023-03-03T11:00:45.373Z,11.95
2023-03-03T11:03:45.486Z,13.76
2023-03-03T11:06:18.343Z,12.89
2023-03-03T11:08:52.980Z,11.43
2023-03-03T11:11:31.103Z,11.66
2023-03-03T11:14:05.337Z,12.75
2023-03-03T11:16:42.171Z,12.29
2023-03-03T11:19:32.367Z,12.11
2023-03-03T11:22:16.825Z,12.27
2023-03-03T11:24:53.149Z,11.42
2023-03-03T11:27:33.456Z,10.11
2023-03-03T11:30:18.934Z,9.83
2023-03-03T11:32:52.667Z,9.04
2023-03-03T11:35:27.182Z,10.21
2023-03-03T11:38:06.701Z,9.61
2023-03-03T11:40:44.807Z,8.95
2023-03-03T11:43:35.441Z,9.34
2023-03-03T11:46:07.180Z,8.87
2023-03-03T11:48:43.256Z,9.20
2023-03-03T11:51:15.443Z,9.14
2023-03-03T11:53:57.508Z,9.25
2023-03-03T11:56:40.963Z,8.80
2023-03-03T11:59:23.650Z,8.23
2023-03-03T12:01:55.264Z,7.88
2023-03-03T12:04:30.587Z,7.77
2023-03-03T12:07:18.881Z,7.85
2023-03-03T12:09:57.607Z,7.52
2023-03-03T12:12:32.240Z,7.76
2023-03-03T12:15:14.347Z,7.77
2023-03-03T12:18:12.347Z,9.54
2023-03-03T12:20:49.556Z,9.10
2023-03-03T12:23:42.497Z,9.70
2023-03-03T12:26:14.609Z,9.17
2023-03-03T12:28:48.720Z,9.38
2023-03-03T12:31:31.603Z,8.38
2023-03-03T12:34:03.190Z,9.23
2023-03-03T12:37:04.987Z,9.64
2023-03-03T12:39:44.253Z,10.73
2023-03-03T12:42:24.172Z,9.21
2023-03-03T12:44:59.815Z,7.58
2023-03-03T12:47:29.751Z,7.67
2023-03-03T12:50:10.628Z,7.17
2023-03-03T12:52:50.786Z,7.82
2023-03-03T12:55:26.532Z,7.02
2023-03-03T12:58:03.165Z,6.91
2023-03-03T13:00:43.918Z,7.49
2023-03-03T13:03:24.884Z,8.73
2023-03-03T13:06:01.668Z,8.29
2023-03-03T13:08:42.698Z,8.02
2023-03-03T13:11:27.789Z,7.41
2023-03-03T13:14:04.278Z,6.24
2023-03-03T13:16:41.616Z,6.86
2023-03-03T13:19:15.781Z,6.89
2023-03-03T13:21:48.802Z,6.89
2023-03-03T13:24:23.591Z,5.89
2023-03-03T13:26:55.489Z,5.42
2023-03-03T13:29:27.596Z,4.60
2023-03-03T13:31:56.750Z,7.06
2023-03-03T13:34:34.177Z,7.88
2023-03-03T13:37:05.519Z,7.71
2023-03-03T13:39:38.255Z,8.95
2023-03-03T13:42:14.479Z,9.74
2023-03-03T13:44:46.019Z,10.62
2023-03-03T13:47:18.041Z,11.11
2023-03-03T13:50:14.875Z,10.15
2023-03-03T13:52:51.942Z,11.58
2023-03-03T13:55:26.793Z,11.94
2023-03-03T13:58:05.612Z,12.05
2023-03-03T14:00:44.823Z,11.07
2023-03-03T14:03:58.649Z,11.54
2023-03-03T14:06:27.559Z,10.05
2023-03-03T14:09:22.548Z,9.20
2023-03-03T14:11:56.486Z,9.64
2023-03-03T14:14:42.230Z,9.10
2023-03-03T14:19:46.636Z,7.24
2023-03-03T14:22:19.017Z,8.52
2023-03-03T14:25:00.635Z,8.99
2023-03-03T14:27:33.282Z,9.95
2023-03-03T14:30:00.013Z,11.04
2023-03-03T14:32:43.079Z,12.36
2023-03-03T14:37:46.208Z,12.00
2023-03-03T14:40:18.768Z,17.28
2023-03-03T14:42:53.661Z,18.83
2023-03-03T14:45:30.814Z,16.57
2023-03-03T14:48:00.972Z,14.65
2023-03-03T14:50:36.644Z,16.02
2023-03-03T14:53:12.099Z,16.97
2023-03-03T14:55:41.342Z,13.49
2023-03-03T14:58:25.285Z,11.04
2023-03-03T15:01:08.423Z,7.48
2023-03-03T15:03:37.603Z,6.74
2023-03-03T15:06:11.427Z,6.94
2023-03-03T15:08:41.108Z,5.64
2023-03-03T15:11:25.645Z,4.66
2023-03-03T15:16:21.127Z,4.23
2023-03-03T15:19:21.491Z,4.79
2023-03-03T15:21:57.567Z,5.36
2023-03-03T15:24:31.710Z,5.40
2023-03-03T15:29:32.863Z,7.40
2023-03-03T15:32:08.083Z,8.18
2023-03-03T15:34:43.214Z,24.63
2023-03-03T15:37:26.572Z,18.46
2023-03-03T15:39:58.780Z,13.61
2023-03-03T15:42:32.113Z,14.24
2023-03-03T15:45:07.560Z,13.52
2023-03-03T15:47:49.843Z,11.03
2023-03-03T15:50:37.603Z,8.87
2023-03-03T15:53:15.078Z,8.51
2023-03-03T15:55:52.839Z,10.64
2023-03-03T15:58:40.424Z,16.65
2023-03-03T16:01:17.655Z,14.38
2023-03-03T16:03:50.654Z,11.65
2023-03-03T16:06:25.366Z,12.15
2023-03-03T16:09:01.865Z,13.59
2023-03-03T16:11:35.160Z,12.51
2023-03-03T16:14:23.950Z,12.64
2023-03-03T16:16:58.153Z,12.72
2023-03-03T16:22:22.624Z,8.93
2023-03-03T16:25:07.267Z,6.81
2023-03-03T16:30:25.680Z,6.03
2023-03-03T16:33:08.589Z,4.18
2023-03-03T16:38:37.540Z,3.58
2023-03-03T16:41:12.564Z,3.22
2023-03-03T16:44:04.645Z,2.97
2023-03-03T16:46:38.937Z,2.99
2023-03-03T16:49:17.651Z,3.54
2023-03-03T16:51:53.877Z,5.26
2023-03-03T16:54:41.090Z,4.71
2023-03-03T16:57:21.529Z,4.37
2023-03-03T17:00:00.639Z,5.42
2023-03-03T17:02:44.759Z,4.40
2023-03-03T17:05:22.327Z,4.73
2023-03-03T17:08:01.929Z,6.05
2023-03-03T17:10:39.026Z,4.92
2023-03-03T17:13:25.250Z,4.47
2023-03-03T17:16:03.979Z,3.95
2023-03-03T17:18:40.446Z,3.75
2023-03-03T17:21:20.586Z,4.53
2023-03-03T17:24:03.620Z,4.02
2023-03-03T17:27:07.068Z,3.20
2023-03-03T17:29:50.695Z,3.33
2023-03-03T17:32:31.253Z,3.92
2023-03-03T17:35:24.767Z,5.54
2023-03-03T17:38:02.387Z,5.57
2023-03-03T17:40:44.611Z,4.10
2023-03-03T17:43:16.232Z,3.43
2023-03-03T17:45:50.987Z,4.45
2023-03-03T17:49:33.402Z,4.39
2023-03-03T18:11:19.758Z,4.49
2023-03-03T18:14:16.252Z,3.87
2023-03-03T18:17:12.553Z,4.17
2023-03-03T18:19:56.036Z,3.64
2023-03-03T18:22:29.821Z,5.57
2023-03-03T18:25:01.968Z,4.53
2023-03-03T18:27:37.754Z,4.11
2023-03-03T18:30:22.690Z,3.42
2023-03-03T18:33:11.170Z,3.49
2023-03-03T18:35:40.804Z,4.37
2023-03-03T18:38:34.438Z,5.49
2023-03-03T18:41:03.231Z,5.65
2023-03-03T18:43:52.840Z,4.29
2023-03-03T18:46:46.111Z,3.47
2023-03-03T18:49:13.258Z,3.81
2023-03-03T18:51:51.127Z,5.27
2023-03-03T18:54:24.929Z,6.30
2023-03-03T18:57:13.093Z,6.51
2023-03-03T18:59:49.424Z,5.61
2023-03-03T19:02:24.415Z,4.88
2023-03-03T19:04:55.413Z,5.27
2023-03-03T19:07:26.327Z,5.90
2023-03-03T19:09:55.694Z,7.34
2023-03-03T19:12:50.031Z,8.68
2023-03-03T19:15:48.859Z,11.63
2023-03-03T19:18:21.449Z,13.32
2023-03-03T19:20:55.434Z,11.11
2023-03-03T19:26:30.550Z,12.21
2023-03-03T19:29:07.042Z,13.72
2023-03-03T19:31:42.190Z,14.75
2023-03-03T19:34:18.936Z,13.69
2023-03-03T19:37:05.390Z,14.57
2023-03-03T19:39:50.084Z,16.06
2023-03-03T19:42:30.690Z,16.15
2023-03-03T19:45:22.954Z,18.56
2023-03-03T19:47:58.846Z,16.98
2023-03-03T19:50:36.499Z,17.88
2023-03-03T19:53:14.503Z,19.59
2023-03-03T19:55:53.069Z,22.19
2023-03-03T19:58:29.132Z,21.97
2023-03-03T20:01:03.054Z,18.45
2023-03-03T20:03:49.962Z,16.08
2023-03-03T20:06:32.082Z,17.21
2023-03-03T20:09:03.632Z,17.77
2023-03-03T20:11:54.831Z,19.22
2023-03-03T20:14:33.028Z,17.97
2023-03-03T20:17:15.966Z,19.83
2023-03-03T20:19:53.072Z,19.88
2023-03-03T20:22:28.057Z,18.89
2023-03-03T20:25:08.831Z,21.33
2023-03-03T20:27:44.289Z,19.74
2023-03-03T20:30:21.182Z,18.19
2023-03-03T20:33:02.731Z,17.52
2023-03-03T20:35:40.553Z,15.67
2023-03-03T20:38:18.654Z,16.01
2023-03-03T20:40:53.218Z,15.74
2023-03-03T20:43:34.365Z,17.05
2023-03-03T20:46:10.607Z,20.07
2023-03-03T20:48:53.192Z,22.47
2023-03-03T20:51:27.649Z,23.18
2023-03-03T20:54:04.447Z,22.99
2023-03-03T20:56:38.924Z,20.71
2023-03-03T20:59:18.258Z,18.62
2023-03-03T21:01:53.119Z,20.83
2023-03-03T21:04:22.995Z,22.55
2023-03-03T21:06:51.512Z,22.38
2023-03-03T21:09:27.384Z,21.96
2023-03-03T21:11:54.938Z,20.67
2023-03-03T21:14:23.600Z,18.51
2023-03-03T21:16:51.896Z,18.18
2023-03-03T21:19:27.991Z,18.46
2023-03-03T21:21:56.932Z,19.97
2023-03-03T21:24:44.063Z,20.45
2023-03-03T21:27:25.571Z,19.84
2023-03-03T21:30:03.252Z,18.34
2023-03-03T21:32:39.458Z,17.58
2023-03-03T21:35:09.318Z,15.63
2023-03-03T21:37:47.481Z,15.60
2023-03-03T21:40:16.874Z,15.01
2023-03-03T21:42:43.840Z,14.81
2023-03-03T21:45:12.185Z,18.77
2023-03-03T21:47:38.950Z,16.99
2023-03-03T21:50:06.735Z,16.81
2023-03-03T21:52:33.985Z,16.12
2023-03-03T21:55:02.180Z,13.96
2023-03-03T21:57:29.035Z,13.20
2023-03-03T21:59:55.989Z,14.31
2023-03-03T22:02:23.026Z,16.69
2023-03-03T22:04:49.919Z,16.13
2023-03-03T22:07:16.738Z,15.96
2023-03-03T22:09:43.616Z,14.04
2023-03-03T22:12:11.841Z,11.46
2023-03-03T22:14:38.565Z,11.09
2023-03-03T22:17:05.430Z,10.54
2023-03-03T22:19:32.189Z,11.00
2023-03-03T22:21:59.022Z,9.62
2023-03-03T22:24:25.846Z,9.96
2023-03-03T22:26:52.600Z,9.63
2023-03-03T22:29:21.099Z,9.68
2023-03-03T22:31:47.940Z,9.62
2023-03-03T22:34:15.399Z,9.09
2023-03-03T22:36:42.223Z,10.75
2023-03-03T22:39:09.105Z,13.44
2023-03-03T22:41:35.826Z,13.92
2023-03-03T22:44:05.012Z,16.19
2023-03-03T22:46:33.264Z,16.46
2023-03-03T22:49:00.032Z,17.47
2023-03-03T22:51:26.849Z,18.14
2023-03-03T22:53:53.754Z,18.23
2023-03-03T22:56:20.481Z,16.71
2023-03-03T22:58:47.293Z,18.12
2023-03-03T23:01:14.147Z,15.15
2023-03-03T23:03:42.526Z,16.17
2023-03-03T23:06:09.357Z,15.51
2023-03-03T23:08:36.177Z,14.42
2023-03-03T23:11:03.045Z,13.96
2023-03-03T23:13:29.845Z,13.49
2023-03-03T23:15:56.592Z,11.25
2023-03-03T23:18:23.473Z,10.04
2023-03-03T23:20:51.576Z,10.34
2023-03-03T23:23:18.473Z,9.75
2023-03-03T23:25:45.454Z,9.11
2023-03-03T23:28:12.313Z,9.07
2023-03-03T23:30:39.104Z,9.97
2023-03-03T23:33:05.978Z,10.42
2023-03-03T23:35:32.941Z,10.90
2023-03-03T23:38:01.965Z,10.27
2023-03-03T23:40:28.902Z,10.94
2023-03-03T23:42:55.661Z,11.40
2023-03-03T23:45:22.373Z,10.80
2023-03-03T23:47:49.204Z,9.41
2023-03-03T23:50:16.581Z,10.66
2023-03-03T23:52:43.796Z,11.78
2023-03-03T23:55:12.501Z,12.50
2023-03-03T23:57:39.339Z,11.45
